sensor_id;sensor_type;location;lat;lon;timestamp;pressure;altitude;pressure_sealevel;temperature;humidity
71504;BME280;59323;50.874;7.028;2023-03-20T00:02:01;101599.44;;;9.45;89.86
71504;BME280;59323;50.874;7.028;2023-03-20T00:04:26;101611.75;;;9.43;89.80
71504;BME280;59323;50.874;7.028;2023-03-20T00:06:51;101615.72;;;9.45;88.98
71504;BME280;59323;50.874;7.028;2023-03-20T00:09:17;101608.03;;;9.47;88.71
71504;BME280;59323;50.874;7.028;2023-03-20T00:11:50;101619.09;;;9.42;88.96
71504;BME280;59323;50.874;7.028;2023-03-20T00:14:18;101615.47;;;9.38;89.86
71504;BME280;59323;50.874;7.028;2023-03-20T00:16:46;101623.63;;;9.38;89.56
71504;BME280;59323;50.874;7.028;2023-03-20T00:19:23;101628.69;;;9.40;88.97
71504;BME280;59323;50.874;7.028;2023-03-20T00:21:49;101627.25;;;9.42;88.53
71504;BME280;59323;50.874;7.028;2023-03-20T00:24:16;101623.63;;;9.38;89.49
71504;BME280;59323;50.874;7.028;2023-03-20T00:26:43;101627.25;;;9.42;87.74
71504;BME280;59323;50.874;7.028;2023-03-20T00:29:16;101630.28;;;9.41;88.13
71504;BME280;59323;50.874;7.028;2023-03-20T00:31:44;101635.59;;;9.37;88.10
71504;BME280;59323;50.874;7.028;2023-03-20T00:34:12;101638.75;;;9.39;87.66
71504;BME280;59323;50.874;7.028;2023-03-20T00:36:38;101639.88;;;9.38;87.95
71504;BME280;59323;50.874;7.028;2023-03-20T00:39:04;101645.31;;;9.38;87.62
71504;BME280;59323;50.874;7.028;2023-03-20T00:44:08;101652.53;;;9.34;89.06
71504;BME280;59323;50.874;7.028;2023-03-20T00:46:38;101650.03;;;9.29;89.31
71504;BME280;59323;50.874;7.028;2023-03-20T00:49:04;101647.66;;;9.28;88.70
71504;BME280;59323;50.874;7.028;2023-03-20T00:51:30;101657.03;;;9.30;87.36
71504;BME280;59323;50.874;7.028;2023-03-20T00:53:56;101655.13;;;9.31;86.85
71504;BME280;59323;50.874;7.028;2023-03-20T00:56:39;101655.78;;;9.28;87.23
71504;BME280;59323;50.874;7.028;2023-03-20T00:59:14;101651.34;;;9.23;87.40
71504;BME280;59323;50.874;7.028;2023-03-20T01:01:41;101648.31;;;9.25;87.08
71504;BME280;59323;50.874;7.028;2023-03-20T01:04:18;101658.56;;;9.19;87.47
71504;BME280;59323;50.874;7.028;2023-03-20T01:06:44;101650.63;;;9.14;87.56
71504;BME280;59323;50.874;7.028;2023-03-20T01:09:10;101659.56;;;9.14;86.97
71504;BME280;59323;50.874;7.028;2023-03-20T01:11:36;101661.41;;;9.23;87.12
71504;BME280;59323;50.874;7.028;2023-03-20T01:14:03;101655.84;;;9.19;87.12
71504;BME280;59323;50.874;7.028;2023-03-20T01:16:28;101657.66;;;9.15;87.68
71504;BME280;59323;50.874;7.028;2023-03-20T01:18:53;101658.31;;;9.12;87.78
71504;BME280;59323;50.874;7.028;2023-03-20T01:21:20;101648.88;;;9.09;88.58
71504;BME280;59323;50.874;7.028;2023-03-20T01:23:46;101650.81;;;9.09;87.73
71504;BME280;59323;50.874;7.028;2023-03-20T01:26:28;101653.06;;;9.07;88.45
71504;BME280;59323;50.874;7.028;2023-03-20T01:28:54;101655.78;;;9.07;88.26
71504;BME280;59323;50.874;7.028;2023-03-20T01:31:19;101657.69;;;9.06;88.56
71504;BME280;59323;50.874;7.028;2023-03-20T01:33:45;101652.25;;;9.06;89.03
71504;BME280;59323;50.874;7.028;2023-03-20T01:36:12;101654.19;;;9.06;89.64
71504;BME280;59323;50.874;7.028;2023-03-20T01:38:39;101654.66;;;9.08;88.44
71504;BME280;59323;50.874;7.028;2023-03-20T01:41:13;101650.00;;;9.08;87.94
71504;BME280;59323;50.874;7.028;2023-03-20T01:43:41;101647.63;;;9.07;88.09
71504;BME280;59323;50.874;7.028;2023-03-20T01:51:31;101637.00;;;9.02;88.26
71504;BME280;59323;50.874;7.028;2023-03-20T01:54:08;101636.00;;;9.06;86.98
71504;BME280;59323;50.874;7.028;2023-03-20T01:56:41;101639.16;;;9.08;86.82
71504;BME280;59323;50.874;7.028;2023-03-20T01:59:30;101635.19;;;9.06;87.19
71504;BME280;59323;50.874;7.028;2023-03-20T02:01:56;101626.81;;;8.99;87.82
71504;BME280;59323;50.874;7.028;2023-03-20T02:04:29;101627.47;;;8.96;88.86
71504;BME280;59323;50.874;7.028;2023-03-20T02:06:58;101627.00;;;8.94;88.68
71504;BME280;59323;50.874;7.028;2023-03-20T02:09:24;101623.50;;;8.93;88.12
71504;BME280;59323;50.874;7.028;2023-03-20T02:11:50;101628.13;;;8.93;88.67
71504;BME280;59323;50.874;7.028;2023-03-20T02:14:16;101632.44;;;8.94;88.88
71504;BME280;59323;50.874;7.028;2023-03-20T02:16:42;101634.34;;;8.93;88.79
71504;BME280;59323;50.874;7.028;2023-03-20T02:19:20;101634.03;;;8.95;88.10
71504;BME280;59323;50.874;7.028;2023-03-20T02:36:01;101647.31;;;8.87;88.11
71504;BME280;59323;50.874;7.028;2023-03-20T02:46:47;101624.91;;;8.78;88.94
71504;BME280;59323;50.874;7.028;2023-03-20T03:00:05;101617.75;;;8.74;89.41
71504;BME280;59323;50.874;7.028;2023-03-20T03:02:37;101605.19;;;8.69;89.00
71504;BME280;59323;50.874;7.028;2023-03-20T03:05:11;101616.69;;;8.66;89.69
71504;BME280;59323;50.874;7.028;2023-03-20T03:07:39;101631.38;;;8.65;89.85
71504;BME280;59323;50.874;7.028;2023-03-20T03:10:11;101640.63;;;8.64;89.61
71504;BME280;59323;50.874;7.028;2023-03-20T03:12:40;101649.53;;;8.65;89.80
71504;BME280;59323;50.874;7.028;2023-03-20T03:15:40;101643.66;;;8.63;89.40
71504;BME280;59323;50.874;7.028;2023-03-20T03:18:14;101642.41;;;8.60;89.60
71504;BME280;59323;50.874;7.028;2023-03-20T03:20:42;101645.09;;;8.60;89.82
71504;BME280;59323;50.874;7.028;2023-03-20T03:23:26;101652.44;;;8.60;89.94
71504;BME280;59323;50.874;7.028;2023-03-20T03:25:52;101651.19;;;8.57;89.97
71504;BME280;59323;50.874;7.028;2023-03-20T03:30:52;101642.13;;;8.53;90.21
71504;BME280;59323;50.874;7.028;2023-03-20T03:33:29;101651.84;;;8.54;89.98
71504;BME280;59323;50.874;7.028;2023-03-20T03:46:41;101624.63;;;8.42;90.08
71504;BME280;59323;50.874;7.028;2023-03-20T03:49:14;101618.75;;;8.40;90.16
71504;BME280;59323;50.874;7.028;2023-03-20T03:51:42;101617.97;;;8.39;90.17
71504;BME280;59323;50.874;7.028;2023-03-20T03:54:17;101632.94;;;8.37;90.17
71504;BME280;59323;50.874;7.028;2023-03-20T03:56:46;101627.53;;;8.37;90.22
71504;BME280;59323;50.874;7.028;2023-03-20T03:59:21;101627.06;;;8.35;90.71
71504;BME280;59323;50.874;7.028;2023-03-20T04:01:49;101628.66;;;8.36;90.26
71504;BME280;59323;50.874;7.028;2023-03-20T04:04:16;101624.81;;;8.37;90.85
71504;BME280;59323;50.874;7.028;2023-03-20T04:06:43;101639.47;;;8.36;90.68
71504;BME280;59323;50.874;7.028;2023-03-20T04:09:09;101641.06;;;8.37;90.05
71504;BME280;59323;50.874;7.028;2023-03-20T04:11:34;101642.97;;;8.36;90.24
71504;BME280;59323;50.874;7.028;2023-03-20T04:14:00;101651.44;;;8.35;89.42
71504;BME280;59323;50.874;7.028;2023-03-20T04:16:25;101659.88;;;8.33;89.90
71504;BME280;59323;50.874;7.028;2023-03-20T04:18:51;101656.69;;;8.31;89.22
71504;BME280;59323;50.874;7.028;2023-03-20T04:21:17;101657.00;;;8.30;89.79
71504;BME280;59323;50.874;7.028;2023-03-20T04:23:43;101658.13;;;8.28;89.69
71504;BME280;59323;50.874;7.028;2023-03-20T04:26:09;101663.53;;;8.28;89.55
71504;BME280;59323;50.874;7.028;2023-03-20T04:28:35;101657.97;;;8.34;88.31
71504;BME280;59323;50.874;7.028;2023-03-20T04:31:01;101661.78;;;8.33;88.14
71504;BME280;59323;50.874;7.028;2023-03-20T04:33:27;101664.34;;;8.29;87.92
71504;BME280;59323;50.874;7.028;2023-03-20T04:35:52;101652.38;;;8.30;86.74
71504;BME280;59323;50.874;7.028;2023-03-20T04:38:19;101649.06;;;8.24;87.45
71504;BME280;59323;50.874;7.028;2023-03-20T04:40:45;101662.31;;;8.17;87.83
71504;BME280;59323;50.874;7.028;2023-03-20T04:43:12;101661.16;;;8.27;86.47
71504;BME280;59323;50.874;7.028;2023-03-20T04:45:38;101656.56;;;8.19;87.39
71504;BME280;59323;50.874;7.028;2023-03-20T04:48:04;101651.03;;;8.15;87.25
71504;BME280;59323;50.874;7.028;2023-03-20T04:50:30;101636.53;;;8.11;88.08
71504;BME280;59323;50.874;7.028;2023-03-20T04:52:55;101632.91;;;8.07;88.27
71504;BME280;59323;50.874;7.028;2023-03-20T04:55:21;101636.25;;;8.04;89.10
71504;BME280;59323;50.874;7.028;2023-03-20T04:57:47;101632.63;;;8.00;88.74
71504;BME280;59323;50.874;7.028;2023-03-20T05:00:12;101630.56;;;7.97;88.89
71504;BME280;59323;50.874;7.028;2023-03-20T05:02:38;101624.03;;;7.98;89.34
71504;BME280;59323;50.874;7.028;2023-03-20T05:05:04;101619.72;;;7.97;89.56
71504;BME280;59323;50.874;7.028;2023-03-20T05:07:30;101622.44;;;7.97;88.93
71504;BME280;59323;50.874;7.028;2023-03-20T05:09:55;101624.53;;;7.91;89.39
71504;BME280;59323;50.874;7.028;2023-03-20T05:12:20;101627.41;;;7.86;89.49
71504;BME280;59323;50.874;7.028;2023-03-20T05:14:47;101627.09;;;7.88;89.56
71504;BME280;59323;50.874;7.028;2023-03-20T05:17:12;101627.41;;;7.86;89.80
71504;BME280;59323;50.874;7.028;2023-03-20T05:19:37;101616.44;;;7.83;89.85
71504;BME280;59323;50.874;7.028;2023-03-20T05:22:03;101623.78;;;7.82;89.99
71504;BME280;59323;50.874;7.028;2023-03-20T05:24:29;101616.75;;;7.81;89.87
71504;BME280;59323;50.874;7.028;2023-03-20T05:26:56;101615.47;;;7.79;89.79
71504;BME280;59323;50.874;7.028;2023-03-20T05:29:22;101612.63;;;7.75;89.92
71504;BME280;59323;50.874;7.028;2023-03-20T05:31:47;101611.34;;;7.73;90.21
71504;BME280;59323;50.874;7.028;2023-03-20T05:34:13;101613.59;;;7.71;90.72
71504;BME280;59323;50.874;7.028;2023-03-20T05:36:41;101613.91;;;7.69;90.70
71504;BME280;59323;50.874;7.028;2023-03-20T05:39:06;101625.84;;;7.68;90.80
71504;BME280;59323;50.874;7.028;2023-03-20T05:41:31;101624.13;;;7.63;90.45
71504;BME280;59323;50.874;7.028;2023-03-20T05:43:57;101622.84;;;7.61;90.65
71504;BME280;59323;50.874;7.028;2023-03-20T05:46:22;101613.78;;;7.57;90.23
71504;BME280;59323;50.874;7.028;2023-03-20T05:48:47;101623.34;;;7.54;90.82
71504;BME280;59323;50.874;7.028;2023-03-20T05:51:13;101631.78;;;7.53;90.87
71504;BME280;59323;50.874;7.028;2023-03-20T05:53:38;101627.47;;;7.52;91.28
71504;BME280;59323;50.874;7.028;2023-03-20T05:56:04;101634.31;;;7.49;90.66
71504;BME280;59323;50.874;7.028;2023-03-20T05:58:30;101637.34;;;7.48;90.81
71504;BME280;59323;50.874;7.028;2023-03-20T06:00:56;101634.97;;;7.46;91.12
71504;BME280;59323;50.874;7.028;2023-03-20T06:03:22;101650.41;;;7.46;91.25
71504;BME280;59323;50.874;7.028;2023-03-20T06:05:47;101651.53;;;7.45;91.38
71504;BME280;59323;50.874;7.028;2023-03-20T06:08:12;101644.53;;;7.44;91.70
71504;BME280;59323;50.874;7.028;2023-03-20T06:10:39;101646.75;;;7.42;91.49
71504;BME280;59323;50.874;7.028;2023-03-20T06:13:05;101645.63;;;7.43;91.68
71504;BME280;59323;50.874;7.028;2023-03-20T06:15:30;101642.47;;;7.41;91.48
71504;BME280;59323;50.874;7.028;2023-03-20T06:17:56;101636.25;;;7.49;90.31
71504;BME280;59323;50.874;7.028;2023-03-20T06:20:21;101637.03;;;7.49;90.28
71504;BME280;59323;50.874;7.028;2023-03-20T06:22:47;101653.25;;;7.49;91.04
71504;BME280;59323;50.874;7.028;2023-03-20T06:25:12;101645.78;;;7.46;91.27
71504;BME280;59323;50.874;7.028;2023-03-20T06:27:38;101632.59;;;7.45;91.35
71504;BME280;59323;50.874;7.028;2023-03-20T06:30:04;101639.59;;;7.46;91.26
71504;BME280;59323;50.874;7.028;2023-03-20T06:32:30;101637.34;;;7.48;91.94
71504;BME280;59323;50.874;7.028;2023-03-20T06:34:56;101630.03;;;7.48;91.44
71504;BME280;59323;50.874;7.028;2023-03-20T06:37:21;101637.03;;;7.49;91.84
71504;BME280;59323;50.874;7.028;2023-03-20T06:39:46;101636.72;;;7.51;91.79
71504;BME280;59323;50.874;7.028;2023-03-20T06:42:12;101649.28;;;7.55;91.43
71504;BME280;59323;50.874;7.028;2023-03-20T06:44:37;101649.41;;;7.59;91.49
71504;BME280;59323;50.874;7.028;2023-03-20T06:47:03;101646.41;;;7.60;91.22
71504;BME280;59323;50.874;7.028;2023-03-20T06:49:28;101643.53;;;7.66;91.22
71504;BME280;59323;50.874;7.028;2023-03-20T06:51:54;101637.78;;;7.67;91.31
71504;BME280;59323;50.874;7.028;2023-03-20T06:54:19;101644.28;;;7.75;91.29
71504;BME280;59323;50.874;7.028;2023-03-20T06:56:48;101645.22;;;7.79;90.98
71504;BME280;59323;50.874;7.028;2023-03-20T06:59:14;101644.94;;;7.80;90.79
71504;BME280;59323;50.874;7.028;2023-03-20T07:01:39;101653.53;;;7.82;90.94
71504;BME280;59323;50.874;7.028;2023-03-20T07:04:04;101651.28;;;7.84;91.09
71504;BME280;59323;50.874;7.028;2023-03-20T07:06:30;101650.66;;;7.87;90.96
71504;BME280;59323;50.874;7.028;2023-03-20T07:08:56;101654.28;;;7.91;90.82
71504;BME280;59323;50.874;7.028;2023-03-20T07:11:21;101663.34;;;7.95;90.70
71504;BME280;59323;50.874;7.028;2023-03-20T07:13:47;101664.63;;;7.98;90.22
71504;BME280;59323;50.874;7.028;2023-03-20T07:16:12;101678.44;;;8.05;90.11
71504;BME280;59323;50.874;7.028;2023-03-20T07:18:38;101685.59;;;8.10;90.27
71504;BME280;59323;50.874;7.028;2023-03-20T07:21:05;101683.19;;;8.17;89.65
71504;BME280;59323;50.874;7.028;2023-03-20T07:23:32;101702.09;;;8.25;89.67
71504;BME280;59323;50.874;7.028;2023-03-20T07:25:58;101705.41;;;8.40;88.45
71504;BME280;59323;50.874;7.028;2023-03-20T07:28:24;101707.47;;;8.51;88.02
71504;BME280;59323;50.874;7.028;2023-03-20T07:30:50;101716.16;;;8.66;87.57
71504;BME280;59323;50.874;7.028;2023-03-20T07:33:15;101707.66;;;8.76;85.69
71504;BME280;59323;50.874;7.028;2023-03-20T07:35:41;101714.94;;;8.84;85.88
71504;BME280;59323;50.874;7.028;2023-03-20T07:38:07;101712.34;;;8.87;86.21
71504;BME280;59323;50.874;7.028;2023-03-20T07:40:32;101717.59;;;8.93;86.26
71504;BME280;59323;50.874;7.028;2023-03-20T07:42:57;101722.81;;;8.98;85.47
71504;BME280;59323;50.874;7.028;2023-03-20T07:45:23;101729.16;;;9.02;84.81
71504;BME280;59323;50.874;7.028;2023-03-20T07:47:49;101726.91;;;9.04;84.71
71504;BME280;59323;50.874;7.028;2023-03-20T07:50:15;101719.13;;;9.02;84.01
71504;BME280;59323;50.874;7.028;2023-03-20T07:52:47;101716.88;;;9.04;84.11
71504;BME280;59323;50.874;7.028;2023-03-20T07:55:14;101717.34;;;9.06;83.80
71504;BME280;59323;50.874;7.028;2023-03-20T07:57:40;101712.69;;;9.07;82.41
71504;BME280;59323;50.874;7.028;2023-03-20T08:00:06;101721.00;;;9.10;82.57
71504;BME280;59323;50.874;7.028;2023-03-20T08:02:33;101720.50;;;9.08;82.97
71504;BME280;59323;50.874;7.028;2023-03-20T08:04:59;101728.16;;;9.15;81.53
71504;BME280;59323;50.874;7.028;2023-03-20T08:07:24;101728.47;;;9.13;82.24
71504;BME280;59323;50.874;7.028;2023-03-20T08:09:50;101733.91;;;9.13;81.60
71504;BME280;59323;50.874;7.028;2023-03-20T08:12:16;101738.84;;;9.11;81.99
71504;BME280;59323;50.874;7.028;2023-03-20T08:14:42;101739.66;;;9.12;81.01
71504;BME280;59323;50.874;7.028;2023-03-20T08:17:08;101740.91;;;9.14;81.86
71504;BME280;59323;50.874;7.028;2023-03-20T08:19:33;101749.19;;;9.18;81.31
71504;BME280;59323;50.874;7.028;2023-03-20T08:21:59;101741.50;;;9.20;81.54
71504;BME280;59323;50.874;7.028;2023-03-20T08:24:24;101744.69;;;9.22;79.79
71504;BME280;59323;50.874;7.028;2023-03-20T08:26:49;101749.44;;;9.25;79.95
71504;BME280;59323;50.874;7.028;2023-03-20T08:29:15;101752.94;;;9.26;79.12
71504;BME280;59323;50.874;7.028;2023-03-20T08:31:43;101747.66;;;9.29;77.18
71504;BME280;59323;50.874;7.028;2023-03-20T08:34:08;101747.00;;;9.32;76.25
71504;BME280;59323;50.874;7.028;2023-03-20T08:36:34;101750.84;;;9.31;76.13
71504;BME280;59323;50.874;7.028;2023-03-20T08:39:00;101747.00;;;9.32;76.09
71504;BME280;59323;50.874;7.028;2023-03-20T08:41:25;101747.47;;;9.34;74.52
71504;BME280;59323;50.874;7.028;2023-03-20T08:43:50;101745.69;;;9.38;74.22
71504;BME280;59323;50.874;7.028;2023-03-20T08:46:16;101746.13;;;9.40;74.41
71504;BME280;59323;50.874;7.028;2023-03-20T08:48:41;101746.28;;;9.44;72.87
71504;BME280;59323;50.874;7.028;2023-03-20T08:51:06;101749.31;;;9.42;74.91
71504;BME280;59323;50.874;7.028;2023-03-20T08:53:32;101743.22;;;9.45;73.84
71504;BME280;59323;50.874;7.028;2023-03-20T08:55:57;101749.91;;;9.48;74.90
71504;BME280;59323;50.874;7.028;2023-03-20T08:58:23;101750.97;;;9.56;73.06
71504;BME280;59323;50.874;7.028;2023-03-20T09:00:48;101755.72;;;9.59;74.11
71504;BME280;59323;50.874;7.028;2023-03-20T09:03:16;101756.66;;;9.63;73.60
71504;BME280;59323;50.874;7.028;2023-03-20T09:05:43;101754.06;;;9.66;71.83
71504;BME280;59323;50.874;7.028;2023-03-20T09:08:09;101756.56;;;9.71;72.07
71504;BME280;59323;50.874;7.028;2023-03-20T09:10:34;101748.09;;;9.73;71.47
71504;BME280;59323;50.874;7.028;2023-03-20T09:13:00;101745.84;;;9.75;72.65
71504;BME280;59323;50.874;7.028;2023-03-20T09:15:26;101753.34;;;9.78;71.67
71504;BME280;59323;50.874;7.028;2023-03-20T09:17:51;101754.59;;;9.80;71.69
71504;BME280;59323;50.874;7.028;2023-03-20T09:20:16;101748.97;;;9.85;70.25
71504;BME280;59323;50.874;7.028;2023-03-20T09:22:42;101751.81;;;9.89;69.63
71504;BME280;59323;50.874;7.028;2023-03-20T09:25:09;101749.41;;;9.88;70.86
71504;BME280;59323;50.874;7.028;2023-03-20T09:27:34;101744.91;;;9.92;69.60
71504;BME280;59323;50.874;7.028;2023-03-20T09:30:00;101755.09;;;9.95;69.71
71504;BME280;59323;50.874;7.028;2023-03-20T09:32:25;101747.28;;;9.93;71.02
71504;BME280;59323;50.874;7.028;2023-03-20T09:34:50;101752.03;;;9.96;71.05
71504;BME280;59323;50.874;7.028;2023-03-20T09:37:16;101749.13;;;10.01;70.93
71504;BME280;59323;50.874;7.028;2023-03-20T09:39:41;101750.50;;;10.07;69.75
71504;BME280;59323;50.874;7.028;2023-03-20T09:45:42;101756.56;;;10.25;69.72
71504;BME280;59323;50.874;7.028;2023-03-20T09:48:24;101759.06;;;10.30;68.45
71504;BME280;59323;50.874;7.028;2023-03-20T09:51:04;101769.59;;;10.32;68.98
71504;BME280;59323;50.874;7.028;2023-03-20T09:53:33;101759.06;;;10.30;69.77
71504;BME280;59323;50.874;7.028;2023-03-20T09:56:00;101755.22;;;10.31;68.81
71504;BME280;59323;50.874;7.028;2023-03-20T09:58:30;101748.44;;;10.37;69.18
71504;BME280;59323;50.874;7.028;2023-03-20T10:00:59;101746.50;;;10.38;70.58
71504;BME280;59323;50.874;7.028;2023-03-20T10:05:58;101740.88;;;10.43;69.02
71504;BME280;59323;50.874;7.028;2023-03-20T10:08:33;101749.59;;;10.48;68.95
71504;BME280;59323;50.874;7.028;2023-03-20T10:11:09;101741.91;;;10.51;68.32
71504;BME280;59323;50.874;7.028;2023-03-20T10:19:15;101747.47;;;10.66;69.53
71504;BME280;59323;50.874;7.028;2023-03-20T10:21:47;101747.34;;;10.75;69.14
71504;BME280;59323;50.874;7.028;2023-03-20T10:24:20;101742.22;;;10.86;69.18
71504;BME280;59323;50.874;7.028;2023-03-20T10:26:51;101741.44;;;10.97;67.13
71504;BME280;59323;50.874;7.028;2023-03-20T10:40:27;101741.88;;;11.11;65.63
71504;BME280;59323;50.874;7.028;2023-03-20T10:43:00;101741.78;;;11.08;66.01
71504;BME280;59323;50.874;7.028;2023-03-20T10:45:32;101742.31;;;11.01;65.57
71504;BME280;59323;50.874;7.028;2023-03-20T10:48:03;101737.91;;;10.97;66.53
71504;BME280;59323;50.874;7.028;2023-03-20T10:50:36;101736.31;;;10.96;68.01
71504;BME280;59323;50.874;7.028;2023-03-20T10:53:04;101740.19;;;10.95;66.11
71504;BME280;59323;50.874;7.028;2023-03-20T10:55:35;101737.22;;;11.00;65.59
71504;BME280;59323;50.874;7.028;2023-03-20T10:58:10;101730.44;;;10.94;65.64
71504;BME280;59323;50.874;7.028;2023-03-20T11:00:39;101733.84;;;10.91;64.82
71504;BME280;59323;50.874;7.028;2023-03-20T11:03:06;101727.63;;;10.90;63.91
71504;BME280;59323;50.874;7.028;2023-03-20T11:05:35;101731.00;;;10.87;64.79
71504;BME280;59323;50.874;7.028;2023-03-20T11:08:12;101731.47;;;10.89;65.94
71504;BME280;59323;50.874;7.028;2023-03-20T11:10:40;101732.03;;;10.95;65.76
71504;BME280;59323;50.874;7.028;2023-03-20T11:13:32;101727.84;;;10.97;63.74
71504;BME280;59323;50.874;7.028;2023-03-20T11:16:08;101724.09;;;11.02;60.84
71504;BME280;59323;50.874;7.028;2023-03-20T11:18:35;101729.19;;;11.03;59.51
71504;BME280;59323;50.874;7.028;2023-03-20T11:21:01;101729.88;;;11.00;59.59
71504;BME280;59323;50.874;7.028;2023-03-20T11:23:33;101725.56;;;10.99;60.40
71504;BME280;59323;50.874;7.028;2023-03-20T11:26:02;101727.50;;;10.99;59.78
71504;BME280;59323;50.874;7.028;2023-03-20T11:28:38;101718.44;;;10.95;61.02
71504;BME280;59323;50.874;7.028;2023-03-20T11:31:05;101718.78;;;10.93;60.67
71504;BME280;59323;50.874;7.028;2023-03-20T11:33:36;101712.78;;;10.88;60.12
71504;BME280;59323;50.874;7.028;2023-03-20T11:36:10;101710.75;;;10.85;60.85
71504;BME280;59323;50.874;7.028;2023-03-20T11:38:42;101711.97;;;10.87;61.17
71504;BME280;59323;50.874;7.028;2023-03-20T11:41:27;101698.84;;;10.89;60.03
71504;BME280;59323;50.874;7.028;2023-03-20T11:43:53;101700.75;;;10.89;61.88
71504;BME280;59323;50.874;7.028;2023-03-20T11:46:21;101701.44;;;10.86;62.53
71504;BME280;59323;50.874;7.028;2023-03-20T11:49:04;101697.59;;;10.87;59.66
71504;BME280;59323;50.874;7.028;2023-03-20T11:51:30;101693.97;;;10.83;61.04
71504;BME280;59323;50.874;7.028;2023-03-20T11:54:04;101695.34;;;10.76;60.40
71504;BME280;59323;50.874;7.028;2023-03-20T11:56:33;101696.94;;;10.77;62.72
71504;BME280;59323;50.874;7.028;2023-03-20T11:59:03;101686.41;;;10.76;64.57
71504;BME280;59323;50.874;7.028;2023-03-20T12:01:45;101686.06;;;10.77;65.13
71504;BME280;59323;50.874;7.028;2023-03-20T12:04:27;101687.63;;;10.78;65.48
71504;BME280;59323;50.874;7.028;2023-03-20T12:07:03;101689.00;;;10.85;64.26
71504;BME280;59323;50.874;7.028;2023-03-20T12:09:38;101690.91;;;10.84;62.67
71504;BME280;59323;50.874;7.028;2023-03-20T12:23:13;101674.72;;;10.88;62.52
71504;BME280;59323;50.874;7.028;2023-03-20T12:36:02;101662.56;;;10.97;59.65
71504;BME280;59323;50.874;7.028;2023-03-20T12:38:30;101665.53;;;10.92;60.29
71504;BME280;59323;50.874;7.028;2023-03-20T12:49:04;101652.06;;;10.84;62.92
71504;BME280;59323;50.874;7.028;2023-03-20T12:56:58;101660.09;;;10.92;62.59
71504;BME280;59323;50.874;7.028;2023-03-20T12:59:36;101655.88;;;10.95;62.07
71504;BME280;59323;50.874;7.028;2023-03-20T13:02:31;101642.53;;;10.90;59.55
71504;BME280;59323;50.874;7.028;2023-03-20T13:05:23;101651.50;;;10.78;62.21
71504;BME280;59323;50.874;7.028;2023-03-20T13:10:52;101648.13;;;10.69;63.75
71504;BME280;59323;50.874;7.028;2023-03-20T13:13:27;101646.66;;;10.71;64.88
71504;BME280;59323;50.874;7.028;2023-03-20T13:21:24;101638.66;;;10.91;61.98
71504;BME280;59323;50.874;7.028;2023-03-20T13:24:47;101629.81;;;10.94;61.61
71504;BME280;59323;50.874;7.028;2023-03-20T13:29:51;101626.16;;;11.02;62.83
71504;BME280;59323;50.874;7.028;2023-03-20T13:32:21;101635.69;;;11.08;63.33
71504;BME280;59323;50.874;7.028;2023-03-20T13:38:17;101618.19;;;11.21;63.13
71504;BME280;59323;50.874;7.028;2023-03-20T13:40:45;101625.06;;;11.31;62.25
71504;BME280;59323;50.874;7.028;2023-03-20T13:43:38;101625.59;;;11.36;62.49
71504;BME280;59323;50.874;7.028;2023-03-20T13:46:15;101624.91;;;11.39;62.93
71504;BME280;59323;50.874;7.028;2023-03-20T13:48:43;101619.91;;;11.41;62.08
71504;BME280;59323;50.874;7.028;2023-03-20T13:53:52;101610.34;;;11.48;62.55
71504;BME280;59323;50.874;7.028;2023-03-20T14:02:21;101602.09;;;11.44;61.61
71504;BME280;59323;50.874;7.028;2023-03-20T14:04:52;101600.16;;;11.44;62.69
71504;BME280;59323;50.874;7.028;2023-03-20T14:07:35;101596.28;;;11.46;63.02
71504;BME280;59323;50.874;7.028;2023-03-20T14:15:36;101589.81;;;11.50;61.31
71504;BME280;59323;50.874;7.028;2023-03-20T14:18:10;101597.63;;;11.52;62.20
71504;BME280;59323;50.874;7.028;2023-03-20T14:20:39;101594.19;;;11.55;62.28
71504;BME280;59323;50.874;7.028;2023-03-20T14:23:06;101598.59;;;11.59;62.45
71504;BME280;59323;50.874;7.028;2023-03-20T14:25:41;101590.34;;;11.56;63.28
71504;BME280;59323;50.874;7.028;2023-03-20T14:28:21;101593.16;;;11.59;62.92
71504;BME280;59323;50.874;7.028;2023-03-20T14:30:48;101594.56;;;11.53;63.17
71504;BME280;59323;50.874;7.028;2023-03-20T14:36:09;101589.47;;;11.52;62.86
71504;BME280;59323;50.874;7.028;2023-03-20T14:38:43;101589.19;;;11.57;62.30
71504;BME280;59323;50.874;7.028;2023-03-20T14:41:18;101583.41;;;11.58;61.79
71504;BME280;59323;50.874;7.028;2023-03-20T14:43:57;101583.84;;;11.60;62.71
71504;BME280;59323;50.874;7.028;2023-03-20T14:54:54;101580.59;;;11.55;63.18
71504;BME280;59323;50.874;7.028;2023-03-20T14:57:32;101574.72;;;11.53;62.61
71504;BME280;59323;50.874;7.028;2023-03-20T14:59:58;101566.44;;;11.49;62.17
71504;BME280;59323;50.874;7.028;2023-03-20T15:02:27;101563.72;;;11.49;62.91
71504;BME280;59323;50.874;7.028;2023-03-20T15:04:54;101564.88;;;11.48;62.82
71504;BME280;59323;50.874;7.028;2023-03-20T15:09:48;101566.19;;;11.38;63.74
71504;BME280;59323;50.874;7.028;2023-03-20T15:12:18;101563.00;;;11.36;64.08
71504;BME280;59323;50.874;7.028;2023-03-20T15:14:55;101553.72;;;11.37;65.01
71504;BME280;59323;50.874;7.028;2023-03-20T15:20:08;101555.81;;;11.44;64.46
71504;BME280;59323;50.874;7.028;2023-03-20T15:22:49;101560.91;;;11.46;64.35
71504;BME280;59323;50.874;7.028;2023-03-20T15:25:20;101558.38;;;11.53;64.38
71504;BME280;59323;50.874;7.028;2023-03-20T15:27:46;101556.09;;;11.55;63.93
71504;BME280;59323;50.874;7.028;2023-03-20T15:30:17;101554.25;;;11.59;63.88
71504;BME280;59323;50.874;7.028;2023-03-20T15:32:45;101547.22;;;11.58;63.72
71504;BME280;59323;50.874;7.028;2023-03-20T15:35:16;101546.88;;;11.59;63.79
71504;BME280;59323;50.874;7.028;2023-03-20T15:37:45;101542.13;;;11.56;63.83
71504;BME280;59323;50.874;7.028;2023-03-20T15:40:22;101547.22;;;11.58;63.46
71504;BME280;59323;50.874;7.028;2023-03-20T15:43:04;101538.34;;;11.61;64.52
